createdAt,value
2022-09-12T13:10:54.640Z,29.89
2022-09-12T13:13:33.603Z,29.36
2022-09-12T13:16:00.302Z,29.14
2022-09-12T13:18:29.168Z,28.98
2022-09-12T13:21:02.984Z,28.71
2022-09-12T13:23:31.119Z,28.71
2022-09-12T13:25:59.896Z,29.15
2022-09-12T13:28:27.969Z,29.32
2022-09-12T13:30:59.680Z,29.44
2022-09-12T13:33:48.455Z,29.20
2022-09-12T13:36:27.023Z,28.92
2022-09-12T13:39:19.508Z,28.81
2022-09-12T13:41:45.935Z,28.96
2022-09-12T13:44:14.999Z,29.04
2022-09-12T13:46:41.695Z,29.26
2022-09-12T13:49:36.431Z,29.33
2022-09-12T13:52:09.522Z,29.03
2022-09-12T13:54:38.881Z,29.16
2022-09-12T13:57:06.126Z,29.18
2022-09-12T13:59:40.979Z,28.98
2022-09-12T14:02:19.210Z,28.93
2022-09-12T14:05:06.711Z,28.78
2022-09-12T14:07:34.522Z,28.54
2022-09-12T14:17:32.810Z,28.78
2022-09-12T14:20:03.264Z,28.80
2022-09-12T14:22:30.105Z,28.71
2022-09-12T14:24:58.724Z,28.88
2022-09-12T14:27:45.663Z,28.87
2022-09-12T14:30:26.867Z,28.80
2022-09-12T14:33:17.301Z,28.73
2022-09-12T14:35:45.215Z,28.76
2022-09-12T14:38:17.773Z,28.56
2022-09-12T14:40:53.753Z,28.36
2022-09-12T14:43:25.631Z,28.25
2022-09-12T14:45:59.491Z,28.06
2022-09-12T14:48:28.312Z,28.05
2022-09-12T14:50:54.730Z,28.20
2022-09-12T14:53:24.340Z,28.30
2022-09-12T14:56:09.045Z,28.15
2022-09-12T14:58:35.738Z,28.20
2022-09-12T15:04:55.218Z,28.16
2022-09-12T15:07:22.562Z,28.24
2022-09-12T15:09:49.576Z,28.12
2022-09-12T15:12:15.980Z,28.06
2022-09-12T15:14:42.388Z,27.95
2022-09-12T15:17:08.757Z,27.97
2022-09-12T15:20:29.096Z,27.63
2022-09-12T15:22:56.323Z,27.49
2022-09-12T15:25:22.760Z,27.35
2022-09-12T15:27:52.050Z,27.36
2022-09-12T15:30:18.969Z,27.22
2022-09-12T15:32:45.788Z,27.40
2022-09-12T15:35:16.713Z,27.32
2022-09-12T15:37:43.109Z,27.43
2022-09-12T15:40:11.292Z,27.36
2022-09-12T15:42:37.720Z,27.56
2022-09-12T15:45:18.929Z,27.54
2022-09-12T15:47:45.403Z,27.52
2022-09-12T15:50:12.020Z,27.35
2022-09-12T15:52:39.127Z,27.36
2022-09-12T15:55:06.012Z,27.27
2022-09-12T15:57:32.553Z,27.21
2022-09-12T15:59:59.089Z,27.08
2022-09-12T16:02:25.572Z,26.89
2022-09-12T16:04:54.738Z,26.94
2022-09-12T16:07:22.257Z,27.03
2022-09-12T16:09:48.799Z,26.97
2022-09-12T16:12:15.378Z,26.95
2022-09-12T16:14:41.809Z,26.86
2022-09-12T16:17:08.228Z,26.79
2022-09-12T16:19:34.676Z,26.60
2022-09-12T16:22:01.116Z,26.73
2022-09-12T16:24:27.594Z,26.78
2022-09-12T16:26:56.815Z,26.87
2022-09-12T16:29:25.611Z,26.83
2022-09-12T16:31:52.033Z,26.60
2022-09-12T16:34:18.429Z,26.65
2022-09-12T16:36:45.269Z,26.69
2022-09-12T16:39:11.652Z,26.71
2022-09-12T16:41:38.110Z,26.75
2022-09-12T16:44:04.504Z,26.72
2022-09-12T16:46:31.016Z,26.71
2022-09-12T16:48:58.923Z,26.80
2022-09-12T16:51:28.162Z,26.90
2022-09-12T16:53:56.542Z,26.82
2022-09-12T16:56:26.215Z,26.56
2022-09-12T16:58:52.629Z,26.29
2022-09-12T17:01:23.992Z,26.00
2022-09-12T17:03:54.848Z,25.89
2022-09-12T17:06:21.883Z,25.68
2022-09-12T17:08:51.015Z,25.58
2022-09-12T17:11:19.883Z,25.43
2022-09-12T17:14:04.519Z,25.30
2022-09-12T17:16:34.060Z,25.18
2022-09-12T17:19:00.475Z,24.99
2022-09-12T17:21:27.037Z,24.86
2022-09-12T17:23:54.236Z,24.76
2022-09-12T17:26:20.851Z,24.60
2022-09-12T17:28:47.267Z,24.58
2022-09-12T17:31:14.570Z,24.42
2022-09-12T17:33:41.215Z,24.34
2022-09-12T17:36:11.231Z,24.22
2022-09-12T17:38:39.701Z,24.03
2022-09-12T17:41:18.046Z,23.88
2022-09-12T17:43:46.556Z,23.76
2022-09-12T17:46:13.536Z,23.60
2022-09-12T17:48:40.021Z,23.49
2022-09-12T17:51:11.242Z,23.36
2022-09-12T17:53:38.316Z,23.25
2022-09-12T17:56:05.809Z,23.12
2022-09-12T17:58:33.265Z,23.04
2022-09-12T18:01:28.994Z,22.87
2022-09-12T18:03:56.666Z,22.78
2022-09-12T18:06:23.892Z,22.76
2022-09-12T18:08:50.420Z,22.68
2022-09-12T18:11:16.991Z,22.60
2022-09-12T18:13:43.556Z,22.50
2022-09-12T18:16:11.349Z,22.47
2022-09-12T18:18:38.190Z,22.44
2022-09-12T18:21:05.934Z,22.30
2022-09-12T18:23:33.758Z,22.29
2022-09-12T18:26:09.160Z,22.27
2022-09-12T18:28:37.623Z,22.25
2022-09-12T18:31:05.407Z,22.18
2022-09-12T18:33:32.111Z,22.10
2022-09-12T18:36:04.042Z,22.04
2022-09-12T18:38:31.088Z,22.01
2022-09-12T18:41:29.860Z,21.97
2022-09-12T18:43:57.700Z,21.96
2022-09-12T18:46:24.861Z,21.98
2022-09-12T18:48:51.767Z,21.91
2022-09-12T18:51:20.375Z,21.85
2022-09-12T18:53:54.726Z,21.79
2022-09-12T18:56:25.300Z,21.75
2022-09-12T18:58:57.051Z,21.61
2022-09-12T19:01:25.608Z,21.50
2022-09-12T19:03:53.179Z,21.55
2022-09-12T19:06:24.599Z,21.55
2022-09-12T19:08:52.126Z,21.53
2022-09-12T19:11:19.327Z,21.42
2022-09-12T19:13:47.622Z,21.33
2022-09-12T19:16:16.946Z,21.37
2022-09-12T19:18:43.759Z,21.26
2022-09-12T19:21:18.367Z,21.18
2022-09-12T19:23:45.401Z,21.17
2022-09-12T19:26:13.554Z,21.22
2022-09-12T19:28:40.012Z,21.16
2022-09-12T19:31:07.545Z,21.07
2022-09-12T19:33:34.633Z,21.05
2022-09-12T19:36:13.858Z,21.08
2022-09-12T19:38:52.256Z,20.90
2022-09-12T19:41:21.681Z,20.93
2022-09-12T19:43:48.196Z,20.89
2022-09-12T19:46:19.842Z,20.91
2022-09-12T19:48:47.042Z,20.92
2022-09-12T19:51:14.422Z,20.84
2022-09-12T19:53:42.249Z,20.82
2022-09-12T19:56:09.646Z,20.77
2022-09-12T19:58:38.422Z,20.76
2022-09-12T20:01:25.029Z,20.75
2022-09-12T20:03:53.887Z,20.74
2022-09-12T20:06:20.664Z,20.63
2022-09-12T20:08:47.332Z,20.69
2022-09-12T20:11:17.339Z,20.52
2022-09-12T20:13:44.441Z,20.55
2022-09-12T20:16:20.597Z,20.43
2022-09-12T20:18:49.346Z,20.39
2022-09-12T20:21:18.303Z,20.41
2022-09-12T20:23:45.847Z,20.41
2022-09-12T20:26:12.537Z,20.30
2022-09-12T20:28:40.337Z,20.38
2022-09-12T20:31:10.318Z,20.35
2022-09-12T20:33:37.455Z,20.42
2022-09-12T20:36:12.858Z,20.49
2022-09-12T20:38:40.103Z,20.51
2022-09-12T20:41:10.032Z,20.50
2022-09-12T20:43:38.498Z,20.68
2022-09-12T20:46:06.763Z,20.59
2022-09-12T20:48:34.007Z,20.57
2022-09-12T20:51:00.507Z,20.51
2022-09-12T20:53:30.573Z,20.41
2022-09-12T20:55:59.460Z,20.38
2022-09-12T20:58:25.912Z,20.48
2022-09-12T21:00:52.419Z,20.44
2022-09-12T21:03:19.195Z,20.50
2022-09-12T21:05:46.501Z,20.41
2022-09-12T21:08:14.253Z,20.34
2022-09-12T21:10:42.164Z,20.33
2022-09-12T21:13:10.283Z,20.30
2022-09-12T21:15:38.375Z,20.27
2022-09-12T21:18:05.329Z,20.38
2022-09-12T21:20:32.543Z,20.22
2022-09-12T21:22:59.133Z,20.20
2022-09-12T21:25:25.623Z,20.27
2022-09-12T21:27:52.014Z,20.34
2022-09-12T21:30:18.453Z,20.33
2022-09-12T21:32:45.136Z,20.30
2022-09-12T21:35:13.566Z,20.39
2022-09-12T21:37:39.993Z,20.33
2022-09-12T21:40:06.742Z,20.34
2022-09-12T21:42:33.234Z,20.33
2022-09-12T21:44:59.770Z,20.26
2022-09-12T21:47:26.208Z,20.25
2022-09-12T21:49:52.697Z,20.38
2022-09-12T21:52:19.097Z,20.37
2022-09-12T21:54:45.483Z,20.37
2022-09-12T21:57:11.884Z,20.40
2022-09-12T21:59:38.360Z,20.40
2022-09-12T22:02:08.323Z,20.32
2022-09-12T22:04:34.737Z,20.36
2022-09-12T22:07:02.110Z,20.35
2022-09-12T22:09:28.538Z,20.33
2022-09-12T22:11:55.500Z,20.25
2022-09-12T22:14:21.910Z,20.30
2022-09-12T22:16:48.505Z,20.41
2022-09-12T22:19:15.098Z,20.46
2022-09-12T22:22:01.493Z,20.44
2022-09-12T22:24:27.963Z,20.45
2022-09-12T22:26:55.081Z,20.52
2022-09-12T22:29:21.780Z,20.43
2022-09-12T22:31:48.431Z,20.42
2022-09-12T22:34:15.366Z,20.40
2022-09-12T22:36:41.898Z,20.37
2022-09-12T22:39:08.652Z,20.44
2022-09-12T22:41:35.121Z,20.43
2022-09-12T22:44:01.764Z,20.38
2022-09-12T22:46:30.037Z,20.44
2022-09-12T22:48:56.498Z,20.36
2022-09-12T22:51:23.044Z,20.45
2022-09-12T22:53:49.775Z,20.44
2022-09-12T22:56:16.386Z,20.49
2022-09-12T22:58:43.523Z,20.52
2022-09-12T23:01:10.381Z,20.53
2022-09-12T23:03:37.625Z,20.47
2022-09-12T23:06:05.242Z,20.47
2022-09-12T23:08:32.063Z,20.44
2022-09-12T23:11:11.022Z,20.49
2022-09-12T23:13:38.079Z,20.51
2022-09-12T23:16:06.719Z,20.44
2022-09-12T23:18:36.725Z,20.43
2022-09-12T23:21:09.637Z,20.55
2022-09-12T23:23:36.687Z,20.56
2022-09-12T23:26:06.131Z,20.69
2022-09-12T23:28:32.694Z,20.67
2022-09-12T23:31:00.332Z,20.73
2022-09-12T23:33:31.086Z,20.69
2022-09-12T23:36:02.249Z,20.62
2022-09-12T23:38:32.619Z,20.65
2022-09-12T23:40:59.927Z,20.71
2022-09-12T23:43:26.936Z,20.78
2022-09-12T23:45:53.370Z,20.78
2022-09-12T23:48:20.284Z,20.80
2022-09-12T23:50:47.561Z,20.74
2022-09-12T23:53:15.312Z,20.82
2022-09-12T23:55:42.468Z,20.75
2022-09-12T23:58:09.194Z,20.84
